»·PEaware :: N909CH KBLH-KTUS

N909CH :: KBLH-KTUS

FLIGHT INFORMATION

Flight Status: Arrived
Operator: Privately registered:
United States
More flights under this callsign
Pilot: Jeremy H. (10741)
Aircraft: SOCATA TBM-900
(TBM9)
More flights by this aircraft type
Origin: KBLH Blythe
United States
Destination: KTUS Tucson Intl
United States
More flights between these airports :: More routes between these airports
Route: +PHRED TFD DINGO5
File this flight plan on PilotEdge
Remarks:
Altitude:
(Current/Filed)
29,000ft
Speed:
(Current/Filed)
250kts
Departed: 18-Feb-19 04:06 PM
Arrived: 18-Feb-19 05:17 PM
Distance/Time
Traveled:
210nm/1:11
Distance/Time
To Go:
Arrived

Flight Plot

Page will automatically refresh every two minutes.

Flight plan parsing failed; only flown route is shown


Map Options




Map Legend


Flown Route
Filed Route
Departure Airport
Arrival Airport
Navaid (VOR, NDB)
Fix

Horizontal Profiles

Position Reports

Time Latitude Longitude Heading Altitude Ground
Speed
18-Feb-19 15:44 33.614223 -114.713181 3 392ft 0kts
18-Feb-19 15:45 33.614223 -114.713181 3 392ft 0kts
18-Feb-19 15:46 33.614223 -114.713181 3 392ft 0kts
18-Feb-19 15:47 33.614223 -114.713181 3 392ft 0kts
18-Feb-19 15:48 33.614223 -114.713181 3 392ft 0kts
18-Feb-19 15:49 33.614223 -114.713181 3 392ft 0kts
18-Feb-19 15:50 33.614223 -114.713181 3 392ft 0kts
18-Feb-19 15:51 33.614223 -114.713181 3 392ft 0kts
18-Feb-19 15:52 33.614223 -114.713181 3 392ft 0kts
18-Feb-19 15:53 33.614223 -114.713181 3 392ft 0kts
18-Feb-19 15:54 33.614223 -114.713181 3 392ft 0kts
18-Feb-19 15:55 33.614223 -114.713181 3 392ft 0kts
18-Feb-19 15:56 33.614223 -114.713181 3 392ft 0kts
18-Feb-19 15:57 33.614223 -114.713181 3 392ft 0kts
18-Feb-19 15:58 33.614223 -114.713181 3 392ft 0kts
18-Feb-19 15:59 33.614223 -114.713181 3 392ft 0kts
18-Feb-19 16:00 33.614223 -114.713181 3 392ft 0kts
18-Feb-19 16:01 33.614194 -114.714956 242 392ft 11kts
18-Feb-19 16:01 33.614120 -114.716092 269 392ft 0kts
18-Feb-19 16:03 33.614120 -114.716092 269 392ft 0kts
18-Feb-19 16:04 33.614123 -114.716510 271 393ft 8kts
18-Feb-19 16:04 33.614933 -114.716801 0 394ft 32kts
18-Feb-19 16:05 33.643060 -114.714466 9 1680ft 135kts
18-Feb-19 16:07 33.687317 -114.671319 44 2004ft 199kts
18-Feb-19 16:08 33.725869 -114.645369 320 1991ft 166kts
18-Feb-19 16:08 33.712308 -114.678150 190 2048ft 176kts
18-Feb-19 16:09 33.674532 -114.697371 210 3842ft 138kts
18-Feb-19 16:10 33.640119 -114.718291 208 5104ft 140kts
18-Feb-19 16:11 33.604258 -114.739796 229 7165ft 142kts
18-Feb-19 16:12 33.576827 -114.733179 79 9326ft 148kts
18-Feb-19 16:13 33.597972 -114.692578 61 11828ft 150kts
18-Feb-19 16:14 33.605567 -114.641114 79 14200ft 165kts
18-Feb-19 16:15 33.610082 -114.585004 78 16440ft 176kts
18-Feb-19 16:16 33.614820 -114.524878 78 18471ft 187kts
18-Feb-19 16:17 33.619846 -114.460591 78 20317ft 199kts
18-Feb-19 16:18 33.625160 -114.392204 79 22215ft 215kts
18-Feb-19 16:19 33.630745 -114.319768 81 24471ft 226kts
18-Feb-19 16:20 33.636682 -114.242068 82 26728ft 240kts
18-Feb-19 16:22 33.643939 -114.146125 84 28994ft 258kts
18-Feb-19 16:22 33.629518 -114.069263 121 29083ft 314kts
18-Feb-19 16:23 33.593394 -113.964363 116 29048ft 354kts
18-Feb-19 16:24 33.556006 -113.852298 116 29040ft 367kts
18-Feb-19 16:25 33.517692 -113.737924 116 29036ft 371kts
18-Feb-19 16:26 33.478945 -113.622687 116 29029ft 373kts
18-Feb-19 16:27 33.439899 -113.506976 116 29025ft 374kts
18-Feb-19 16:28 33.400735 -113.391349 116 29025ft 374kts
18-Feb-19 16:29 33.361645 -113.276353 116 29013ft 373kts
18-Feb-19 16:30 33.322333 -113.161137 116 29015ft 372kts
18-Feb-19 16:31 33.283123 -113.046623 116 29017ft 372kts
18-Feb-19 16:32 33.244298 -112.933412 119 28224ft 358kts
18-Feb-19 16:33 33.207038 -112.825341 121 27018ft 345kts
18-Feb-19 16:34 33.171026 -112.721697 120 25815ft 333kts
18-Feb-19 16:35 33.136129 -112.620918 120 24609ft 324kts
18-Feb-19 16:36 33.102130 -112.523219 120 23294ft 311kts
18-Feb-19 16:37 33.069724 -112.430352 120 21986ft 290kts
18-Feb-19 16:38 33.040040 -112.345683 121 21232ft 282kts
18-Feb-19 16:39 33.009100 -112.257561 120 19751ft 291kts
18-Feb-19 16:40 32.977570 -112.167941 119 18229ft 293kts
18-Feb-19 16:41 32.946539 -112.079995 119 16694ft 281kts
18-Feb-19 16:42 32.916641 -111.995528 118 15166ft 273kts
18-Feb-19 16:43 32.887181 -111.913780 127 13894ft 261kts
18-Feb-19 16:44 32.832595 -111.864614 151 12695ft 244kts
18-Feb-19 16:45 32.777058 -111.818600 150 11311ft 242kts
18-Feb-19 16:46 32.722525 -111.773503 150 9897ft 237kts
18-Feb-19 16:47 32.668078 -111.728550 149 9375ft 237kts
18-Feb-19 16:48 32.613245 -111.683362 149 9159ft 236kts
18-Feb-19 16:49 32.558314 -111.638180 148 9002ft 239kts
18-Feb-19 16:50 32.515427 -111.575821 129 9014ft 240kts
18-Feb-19 16:51 32.477920 -111.518910 132 8987ft 207kts
18-Feb-19 16:52 32.440885 -111.467083 152 8974ft 201kts
18-Feb-19 16:53 32.395455 -111.427698 143 8992ft 205kts
18-Feb-19 16:54 32.350119 -111.386105 135 8998ft 211kts
18-Feb-19 16:55 32.305565 -111.341023 144 8993ft 211kts
18-Feb-19 16:56 32.258787 -111.295637 142 9015ft 232kts
18-Feb-19 16:57 32.208565 -111.246917 144 9013ft 231kts
18-Feb-19 16:58 32.158878 -111.198844 144 9025ft 228kts
18-Feb-19 16:59 32.110306 -111.151923 144 8273ft 210kts
18-Feb-19 17:00 32.065836 -111.107891 142 7332ft 212kts
18-Feb-19 17:01 32.020348 -111.062004 142 7322ft 213kts
18-Feb-19 17:02 31.977872 -111.019231 143 7350ft 190kts
18-Feb-19 17:03 31.937407 -110.978528 143 7276ft 191kts
18-Feb-19 17:04 31.902517 -110.938350 139 6961ft 172kts
18-Feb-19 17:05 31.869994 -110.899583 125 6162ft 139kts
18-Feb-19 17:06 31.888796 -110.860030 41 6103ft 167kts
18-Feb-19 17:07 31.922585 -110.820208 41 6099ft 159kts
18-Feb-19 17:08 31.952281 -110.785290 40 5335ft 149kts
18-Feb-19 17:09 31.985280 -110.786512 313 4670ft 138kts
18-Feb-19 17:10 32.010958 -110.816316 312 4392ft 121kts
18-Feb-19 17:11 32.034509 -110.843853 312 4432ft 110kts
18-Feb-19 17:12 32.054049 -110.866702 312 3988ft 90kts
18-Feb-19 17:13 32.070777 -110.886289 313 3530ft 81kts
18-Feb-19 17:14 32.086574 -110.904783 314 3114ft 79kts
18-Feb-19 17:15 32.102269 -110.923194 315 2706ft 80kts
18-Feb-19 17:16 32.110749 -110.932807 2 2619ft 12kts
18-Feb-19 17:17 32.111231 -110.932288 47 2620ft 0kts
18-Feb-19 17:18 32.112156 -110.932223 313 2619ft 9kts
18-Feb-19 17:19 32.114667 -110.935179 315 2611ft 12kts
18-Feb-19 17:20 32.117477 -110.938471 315 2600ft 14kts
18-Feb-19 17:21 32.120332 -110.941817 315 2591ft 15kts
18-Feb-19 17:22 32.122970 -110.944682 14 2580ft 7kts
18-Feb-19 17:23 32.123437 -110.944482 217 2579ft 0kts
18-Feb-19 17:24 32.123437 -110.944482 217 2579ft 0kts

Navigation Log

Ident Type
Flight plan parsing failed, navigation log unavailable